sensor_id;sensor_type;location;lat;lon;timestamp;P1;durP1;ratioP1;P2;durP2;ratioP2
55063;SDS011;40963;52.168;21.296;2023-02-04T00:01:34;18.80;;;8.95;;
55063;SDS011;40963;52.168;21.296;2023-02-04T00:04:00;12.88;;;7.70;;
55063;SDS011;40963;52.168;21.296;2023-02-04T00:06:26;16.05;;;7.88;;
55063;SDS011;40963;52.168;21.296;2023-02-04T00:08:51;20.50;;;8.60;;
55063;SDS011;40963;52.168;21.296;2023-02-04T00:11:17;18.33;;;8.63;;
55063;SDS011;40963;52.168;21.296;2023-02-04T00:13:43;16.23;;;8.07;;
55063;SDS011;40963;52.168;21.296;2023-02-04T00:16:09;6.97;;;4.45;;
55063;SDS011;40963;52.168;21.296;2023-02-04T00:18:34;16.98;;;9.88;;
55063;SDS011;40963;52.168;21.296;2023-02-04T00:21:00;17.77;;;10.15;;
55063;SDS011;40963;52.168;21.296;2023-02-04T00:23:25;17.00;;;8.68;;
55063;SDS011;40963;52.168;21.296;2023-02-04T00:25:51;22.85;;;11.68;;
55063;SDS011;40963;52.168;21.296;2023-02-04T00:28:17;16.05;;;8.63;;
55063;SDS011;40963;52.168;21.296;2023-02-04T00:30:43;11.18;;;6.40;;
55063;SDS011;40963;52.168;21.296;2023-02-04T00:33:08;15.60;;;8.82;;
55063;SDS011;40963;52.168;21.296;2023-02-04T00:35:34;19.70;;;10.30;;
55063;SDS011;40963;52.168;21.296;2023-02-04T00:38:01;19.42;;;9.80;;
55063;SDS011;40963;52.168;21.296;2023-02-04T00:40:27;17.55;;;8.70;;
55063;SDS011;40963;52.168;21.296;2023-02-04T00:42:53;17.95;;;9.45;;
55063;SDS011;40963;52.168;21.296;2023-02-04T00:45:18;16.92;;;8.35;;
55063;SDS011;40963;52.168;21.296;2023-02-04T00:47:44;18.73;;;8.93;;
55063;SDS011;40963;52.168;21.296;2023-02-04T00:50:10;13.88;;;7.65;;
55063;SDS011;40963;52.168;21.296;2023-02-04T00:52:35;18.90;;;7.70;;
55063;SDS011;40963;52.168;21.296;2023-02-04T00:55:01;12.30;;;6.88;;
55063;SDS011;40963;52.168;21.296;2023-02-04T00:57:27;13.88;;;8.57;;
55063;SDS011;40963;52.168;21.296;2023-02-04T00:59:53;14.68;;;8.00;;
55063;SDS011;40963;52.168;21.296;2023-02-04T01:02:18;9.00;;;5.60;;
55063;SDS011;40963;52.168;21.296;2023-02-04T01:04:44;9.75;;;6.80;;
55063;SDS011;40963;52.168;21.296;2023-02-04T01:07:10;17.95;;;9.48;;
55063;SDS011;40963;52.168;21.296;2023-02-04T01:09:36;17.02;;;8.52;;
55063;SDS011;40963;52.168;21.296;2023-02-04T01:12:01;11.38;;;6.53;;
55063;SDS011;40963;52.168;21.296;2023-02-04T01:14:27;18.40;;;9.75;;
55063;SDS011;40963;52.168;21.296;2023-02-04T01:16:53;19.17;;;8.15;;
55063;SDS011;40963;52.168;21.296;2023-02-04T01:19:18;16.88;;;8.52;;
55063;SDS011;40963;52.168;21.296;2023-02-04T01:21:45;14.32;;;7.38;;
55063;SDS011;40963;52.168;21.296;2023-02-04T01:24:10;16.00;;;8.35;;
55063;SDS011;40963;52.168;21.296;2023-02-04T01:26:36;17.33;;;11.13;;
55063;SDS011;40963;52.168;21.296;2023-02-04T01:29:02;16.02;;;8.60;;
55063;SDS011;40963;52.168;21.296;2023-02-04T01:31:27;12.43;;;7.35;;
55063;SDS011;40963;52.168;21.296;2023-02-04T01:33:55;14.77;;;7.55;;
55063;SDS011;40963;52.168;21.296;2023-02-04T01:36:21;15.13;;;7.75;;
55063;SDS011;40963;52.168;21.296;2023-02-04T01:38:47;16.92;;;8.27;;
55063;SDS011;40963;52.168;21.296;2023-02-04T01:41:13;9.48;;;5.78;;
55063;SDS011;40963;52.168;21.296;2023-02-04T01:43:40;13.90;;;7.88;;
55063;SDS011;40963;52.168;21.296;2023-02-04T01:46:05;13.20;;;6.63;;
55063;SDS011;40963;52.168;21.296;2023-02-04T01:48:32;15.82;;;9.23;;
55063;SDS011;40963;52.168;21.296;2023-02-04T01:51:02;16.58;;;6.53;;
55063;SDS011;40963;52.168;21.296;2023-02-04T01:53:30;8.25;;;5.38;;
55063;SDS011;40963;52.168;21.296;2023-02-04T01:55:56;12.45;;;7.35;;
55063;SDS011;40963;52.168;21.296;2023-02-04T01:58:22;12.73;;;6.85;;
55063;SDS011;40963;52.168;21.296;2023-02-04T02:00:47;11.20;;;6.53;;
55063;SDS011;40963;52.168;21.296;2023-02-04T02:03:13;9.48;;;6.47;;
55063;SDS011;40963;52.168;21.296;2023-02-04T02:05:43;12.32;;;6.85;;
55063;SDS011;40963;52.168;21.296;2023-02-04T02:08:11;17.85;;;11.00;;
55063;SDS011;40963;52.168;21.296;2023-02-04T02:10:38;11.35;;;7.03;;
55063;SDS011;40963;52.168;21.296;2023-02-04T02:13:06;12.90;;;6.60;;
55063;SDS011;40963;52.168;21.296;2023-02-04T02:15:34;14.20;;;8.20;;
55063;SDS011;40963;52.168;21.296;2023-02-04T02:17:59;11.68;;;6.65;;
55063;SDS011;40963;52.168;21.296;2023-02-04T02:20:25;14.48;;;7.07;;
55063;SDS011;40963;52.168;21.296;2023-02-04T02:23:01;10.60;;;6.25;;
55063;SDS011;40963;52.168;21.296;2023-02-04T02:25:51;12.65;;;5.32;;
55063;SDS011;40963;52.168;21.296;2023-02-04T02:28:18;12.80;;;8.15;;
55063;SDS011;40963;52.168;21.296;2023-02-04T02:30:46;11.10;;;6.45;;
55063;SDS011;40963;52.168;21.296;2023-02-04T02:33:13;16.75;;;8.65;;
55063;SDS011;40963;52.168;21.296;2023-02-04T02:35:42;11.82;;;7.88;;
55063;SDS011;40963;52.168;21.296;2023-02-04T02:38:12;15.63;;;7.43;;
55063;SDS011;40963;52.168;21.296;2023-02-04T02:40:38;12.27;;;6.75;;
55063;SDS011;40963;52.168;21.296;2023-02-04T02:43:04;12.60;;;8.00;;
55063;SDS011;40963;52.168;21.296;2023-02-04T02:45:31;11.90;;;5.47;;
55063;SDS011;40963;52.168;21.296;2023-02-04T02:47:58;13.50;;;7.70;;
55063;SDS011;40963;52.168;21.296;2023-02-04T02:50:28;12.50;;;7.55;;
55063;SDS011;40963;52.168;21.296;2023-02-04T02:52:54;14.30;;;7.47;;
55063;SDS011;40963;52.168;21.296;2023-02-04T02:55:21;9.00;;;5.38;;
55063;SDS011;40963;52.168;21.296;2023-02-04T02:57:50;10.85;;;6.22;;
55063;SDS011;40963;52.168;21.296;2023-02-04T03:02:48;11.38;;;5.80;;
55063;SDS011;40963;52.168;21.296;2023-02-04T03:05:33;11.75;;;5.68;;
55063;SDS011;40963;52.168;21.296;2023-02-04T03:08:04;8.68;;;5.07;;
55063;SDS011;40963;52.168;21.296;2023-02-04T03:10:31;12.77;;;4.55;;
55063;SDS011;40963;52.168;21.296;2023-02-04T03:12:57;9.52;;;5.75;;
55063;SDS011;40963;52.168;21.296;2023-02-04T03:15:24;11.00;;;5.95;;
55063;SDS011;40963;52.168;21.296;2023-02-04T03:17:50;11.65;;;5.50;;
55063;SDS011;40963;52.168;21.296;2023-02-04T03:20:20;11.63;;;5.47;;
55063;SDS011;40963;52.168;21.296;2023-02-04T03:22:48;8.15;;;4.93;;
55063;SDS011;40963;52.168;21.296;2023-02-04T03:25:14;12.65;;;6.93;;
55063;SDS011;40963;52.168;21.296;2023-02-04T03:27:40;11.20;;;6.35;;
55063;SDS011;40963;52.168;21.296;2023-02-04T03:30:06;11.50;;;5.55;;
55063;SDS011;40963;52.168;21.296;2023-02-04T03:32:32;14.70;;;6.90;;
55063;SDS011;40963;52.168;21.296;2023-02-04T03:34:58;10.40;;;5.80;;
55063;SDS011;40963;52.168;21.296;2023-02-04T03:37:24;7.88;;;4.47;;
55063;SDS011;40963;52.168;21.296;2023-02-04T03:39:50;8.77;;;4.82;;
55063;SDS011;40963;52.168;21.296;2023-02-04T03:42:16;10.38;;;4.47;;
55063;SDS011;40963;52.168;21.296;2023-02-04T03:44:42;10.25;;;5.78;;
55063;SDS011;40963;52.168;21.296;2023-02-04T03:47:08;9.63;;;5.70;;
55063;SDS011;40963;52.168;21.296;2023-02-04T03:49:33;6.93;;;4.80;;
55063;SDS011;40963;52.168;21.296;2023-02-04T03:52:00;8.55;;;3.97;;
55063;SDS011;40963;52.168;21.296;2023-02-04T03:54:26;7.03;;;4.28;;
55063;SDS011;40963;52.168;21.296;2023-02-04T03:56:52;6.15;;;4.43;;
55063;SDS011;40963;52.168;21.296;2023-02-04T03:59:17;11.13;;;5.35;;
55063;SDS011;40963;52.168;21.296;2023-02-04T04:01:43;6.03;;;4.10;;
55063;SDS011;40963;52.168;21.296;2023-02-04T04:04:09;10.93;;;5.55;;
55063;SDS011;40963;52.168;21.296;2023-02-04T04:06:34;9.48;;;4.40;;
55063;SDS011;40963;52.168;21.296;2023-02-04T04:09:00;11.57;;;4.78;;
55063;SDS011;40963;52.168;21.296;2023-02-04T04:11:26;11.50;;;6.22;;
55063;SDS011;40963;52.168;21.296;2023-02-04T04:13:52;10.30;;;5.65;;
55063;SDS011;40963;52.168;21.296;2023-02-04T04:16:17;11.10;;;5.57;;
55063;SDS011;40963;52.168;21.296;2023-02-04T04:18:44;8.55;;;4.68;;
55063;SDS011;40963;52.168;21.296;2023-02-04T04:21:10;8.77;;;5.13;;
55063;SDS011;40963;52.168;21.296;2023-02-04T04:23:36;8.88;;;5.13;;
55063;SDS011;40963;52.168;21.296;2023-02-04T04:26:02;9.38;;;5.25;;
55063;SDS011;40963;52.168;21.296;2023-02-04T04:28:27;11.45;;;5.65;;
55063;SDS011;40963;52.168;21.296;2023-02-04T04:30:53;6.82;;;4.57;;
55063;SDS011;40963;52.168;21.296;2023-02-04T04:33:19;6.75;;;4.10;;
55063;SDS011;40963;52.168;21.296;2023-02-04T04:35:44;7.25;;;3.35;;
55063;SDS011;40963;52.168;21.296;2023-02-04T04:38:10;8.70;;;5.47;;
55063;SDS011;40963;52.168;21.296;2023-02-04T04:40:36;11.00;;;5.25;;
55063;SDS011;40963;52.168;21.296;2023-02-04T04:43:01;4.18;;;2.55;;
55063;SDS011;40963;52.168;21.296;2023-02-04T04:45:27;7.55;;;4.05;;
55063;SDS011;40963;52.168;21.296;2023-02-04T04:47:53;6.43;;;3.95;;
55063;SDS011;40963;52.168;21.296;2023-02-04T04:50:19;11.07;;;5.10;;
55063;SDS011;40963;52.168;21.296;2023-02-04T04:52:45;7.05;;;4.20;;
55063;SDS011;40963;52.168;21.296;2023-02-04T04:55:10;6.80;;;4.10;;
55063;SDS011;40963;52.168;21.296;2023-02-04T04:57:36;8.32;;;4.60;;
55063;SDS011;40963;52.168;21.296;2023-02-04T05:00:03;7.00;;;4.15;;
55063;SDS011;40963;52.168;21.296;2023-02-04T05:02:30;11.18;;;5.50;;
55063;SDS011;40963;52.168;21.296;2023-02-04T05:04:55;6.65;;;4.18;;
55063;SDS011;40963;52.168;21.296;2023-02-04T05:07:21;8.73;;;5.15;;
55063;SDS011;40963;52.168;21.296;2023-02-04T05:09:46;10.02;;;5.10;;
55063;SDS011;40963;52.168;21.296;2023-02-04T05:12:12;8.48;;;4.38;;
55063;SDS011;40963;52.168;21.296;2023-02-04T05:14:38;6.10;;;2.95;;
55063;SDS011;40963;52.168;21.296;2023-02-04T05:17:03;14.10;;;7.22;;
55063;SDS011;40963;52.168;21.296;2023-02-04T05:19:29;13.73;;;5.28;;
55063;SDS011;40963;52.168;21.296;2023-02-04T05:21:55;8.63;;;5.65;;
55063;SDS011;40963;52.168;21.296;2023-02-04T05:24:21;6.80;;;4.32;;
55063;SDS011;40963;52.168;21.296;2023-02-04T05:26:47;12.02;;;6.45;;
55063;SDS011;40963;52.168;21.296;2023-02-04T05:29:13;12.63;;;7.97;;
55063;SDS011;40963;52.168;21.296;2023-02-04T05:31:38;10.77;;;6.10;;
55063;SDS011;40963;52.168;21.296;2023-02-04T05:34:04;12.00;;;6.28;;
55063;SDS011;40963;52.168;21.296;2023-02-04T05:36:30;11.45;;;6.85;;
55063;SDS011;40963;52.168;21.296;2023-02-04T05:38:55;13.02;;;8.02;;
55063;SDS011;40963;52.168;21.296;2023-02-04T05:41:21;10.05;;;6.25;;
55063;SDS011;40963;52.168;21.296;2023-02-04T05:43:47;11.95;;;6.97;;
55063;SDS011;40963;52.168;21.296;2023-02-04T05:46:12;11.25;;;6.75;;
55063;SDS011;40963;52.168;21.296;2023-02-04T05:48:38;15.88;;;8.00;;
55063;SDS011;40963;52.168;21.296;2023-02-04T05:51:04;6.35;;;5.18;;
55063;SDS011;40963;52.168;21.296;2023-02-04T05:53:30;12.43;;;6.93;;
55063;SDS011;40963;52.168;21.296;2023-02-04T05:55:56;10.75;;;6.50;;
55063;SDS011;40963;52.168;21.296;2023-02-04T05:58:21;11.95;;;6.65;;
55063;SDS011;40963;52.168;21.296;2023-02-04T06:00:47;9.63;;;5.25;;
55063;SDS011;40963;52.168;21.296;2023-02-04T06:03:13;12.63;;;5.25;;
55063;SDS011;40963;52.168;21.296;2023-02-04T06:05:39;9.10;;;5.15;;
55063;SDS011;40963;52.168;21.296;2023-02-04T06:08:04;12.43;;;6.47;;
55063;SDS011;40963;52.168;21.296;2023-02-04T06:10:30;8.52;;;4.93;;
55063;SDS011;40963;52.168;21.296;2023-02-04T06:12:56;9.35;;;5.53;;
55063;SDS011;40963;52.168;21.296;2023-02-04T06:15:21;13.18;;;7.95;;
55063;SDS011;40963;52.168;21.296;2023-02-04T06:17:47;15.25;;;6.75;;
55063;SDS011;40963;52.168;21.296;2023-02-04T06:20:13;8.73;;;5.28;;
55063;SDS011;40963;52.168;21.296;2023-02-04T06:22:39;13.85;;;6.30;;
55063;SDS011;40963;52.168;21.296;2023-02-04T06:25:05;10.85;;;6.25;;
55063;SDS011;40963;52.168;21.296;2023-02-04T06:27:31;15.57;;;6.65;;
55063;SDS011;40963;52.168;21.296;2023-02-04T06:29:56;8.88;;;5.45;;
55063;SDS011;40963;52.168;21.296;2023-02-04T06:32:22;10.30;;;5.30;;
55063;SDS011;40963;52.168;21.296;2023-02-04T06:34:48;8.98;;;5.00;;
55063;SDS011;40963;52.168;21.296;2023-02-04T06:37:14;12.38;;;6.25;;
55063;SDS011;40963;52.168;21.296;2023-02-04T06:39:41;5.47;;;4.00;;
55063;SDS011;40963;52.168;21.296;2023-02-04T06:42:07;8.90;;;4.95;;
55063;SDS011;40963;52.168;21.296;2023-02-04T06:44:33;14.02;;;7.32;;
55063;SDS011;40963;52.168;21.296;2023-02-04T06:46:58;10.90;;;4.82;;
55063;SDS011;40963;52.168;21.296;2023-02-04T06:49:24;7.45;;;4.88;;
55063;SDS011;40963;52.168;21.296;2023-02-04T06:51:50;14.65;;;6.72;;
55063;SDS011;40963;52.168;21.296;2023-02-04T06:54:16;11.25;;;6.82;;
55063;SDS011;40963;52.168;21.296;2023-02-04T06:56:42;11.82;;;6.25;;
55063;SDS011;40963;52.168;21.296;2023-02-04T06:59:08;14.70;;;7.38;;
55063;SDS011;40963;52.168;21.296;2023-02-04T07:01:34;7.38;;;4.80;;
55063;SDS011;40963;52.168;21.296;2023-02-04T07:04:00;10.10;;;4.32;;
55063;SDS011;40963;52.168;21.296;2023-02-04T07:06:25;10.80;;;6.60;;
55063;SDS011;40963;52.168;21.296;2023-02-04T07:08:51;11.18;;;6.28;;
55063;SDS011;40963;52.168;21.296;2023-02-04T07:11:17;10.52;;;6.80;;
55063;SDS011;40963;52.168;21.296;2023-02-04T07:13:42;12.05;;;5.07;;
55063;SDS011;40963;52.168;21.296;2023-02-04T07:16:08;9.60;;;6.38;;
55063;SDS011;40963;52.168;21.296;2023-02-04T07:18:33;12.27;;;7.47;;
55063;SDS011;40963;52.168;21.296;2023-02-04T07:20:59;8.27;;;4.57;;
55063;SDS011;40963;52.168;21.296;2023-02-04T07:23:25;12.15;;;7.32;;
55063;SDS011;40963;52.168;21.296;2023-02-04T07:25:52;12.90;;;8.50;;
55063;SDS011;40963;52.168;21.296;2023-02-04T07:28:18;9.32;;;5.20;;
55063;SDS011;40963;52.168;21.296;2023-02-04T07:30:44;12.45;;;7.18;;
55063;SDS011;40963;52.168;21.296;2023-02-04T07:33:10;12.57;;;6.63;;
55063;SDS011;40963;52.168;21.296;2023-02-04T07:35:35;10.02;;;5.32;;
55063;SDS011;40963;52.168;21.296;2023-02-04T07:38:04;9.32;;;6.57;;
55063;SDS011;40963;52.168;21.296;2023-02-04T07:40:30;9.20;;;4.00;;
55063;SDS011;40963;52.168;21.296;2023-02-04T07:42:56;9.25;;;5.95;;
55063;SDS011;40963;52.168;21.296;2023-02-04T07:45:22;8.50;;;4.88;;
55063;SDS011;40963;52.168;21.296;2023-02-04T07:47:48;5.22;;;3.88;;
55063;SDS011;40963;52.168;21.296;2023-02-04T07:50:13;11.65;;;5.72;;
55063;SDS011;40963;52.168;21.296;2023-02-04T07:52:40;10.00;;;5.43;;
55063;SDS011;40963;52.168;21.296;2023-02-04T07:55:06;8.70;;;4.03;;
55063;SDS011;40963;52.168;21.296;2023-02-04T07:57:32;7.43;;;4.57;;
55063;SDS011;40963;52.168;21.296;2023-02-04T07:59:58;7.82;;;5.40;;
55063;SDS011;40963;52.168;21.296;2023-02-04T08:02:24;9.02;;;5.35;;
55063;SDS011;40963;52.168;21.296;2023-02-04T08:04:50;9.73;;;6.35;;
55063;SDS011;40963;52.168;21.296;2023-02-04T08:07:16;10.35;;;5.28;;
55063;SDS011;40963;52.168;21.296;2023-02-04T08:09:42;8.90;;;5.10;;
55063;SDS011;40963;52.168;21.296;2023-02-04T08:12:07;7.65;;;4.50;;
55063;SDS011;40963;52.168;21.296;2023-02-04T08:14:33;13.15;;;4.68;;
55063;SDS011;40963;52.168;21.296;2023-02-04T08:16:59;8.93;;;4.43;;
55063;SDS011;40963;52.168;21.296;2023-02-04T08:19:24;5.85;;;3.70;;
55063;SDS011;40963;52.168;21.296;2023-02-04T08:21:50;7.50;;;4.78;;
55063;SDS011;40963;52.168;21.296;2023-02-04T08:24:16;8.80;;;3.90;;
55063;SDS011;40963;52.168;21.296;2023-02-04T08:26:42;8.45;;;4.90;;
55063;SDS011;40963;52.168;21.296;2023-02-04T08:29:08;7.47;;;4.03;;
55063;SDS011;40963;52.168;21.296;2023-02-04T08:31:34;6.85;;;4.13;;
55063;SDS011;40963;52.168;21.296;2023-02-04T08:34:04;5.65;;;3.17;;
55063;SDS011;40963;52.168;21.296;2023-02-04T08:36:30;5.00;;;3.35;;
55063;SDS011;40963;52.168;21.296;2023-02-04T08:38:56;9.90;;;5.78;;
55063;SDS011;40963;52.168;21.296;2023-02-04T08:41:22;7.75;;;4.13;;
55063;SDS011;40963;52.168;21.296;2023-02-04T08:43:47;4.07;;;3.10;;
55063;SDS011;40963;52.168;21.296;2023-02-04T08:46:13;7.43;;;3.33;;
55063;SDS011;40963;52.168;21.296;2023-02-04T08:48:39;5.90;;;3.17;;
55063;SDS011;40963;52.168;21.296;2023-02-04T08:51:04;6.30;;;4.22;;
55063;SDS011;40963;52.168;21.296;2023-02-04T08:53:30;5.47;;;3.25;;
55063;SDS011;40963;52.168;21.296;2023-02-04T08:55:56;7.43;;;3.72;;
55063;SDS011;40963;52.168;21.296;2023-02-04T08:58:21;7.05;;;3.15;;
55063;SDS011;40963;52.168;21.296;2023-02-04T09:00:47;4.47;;;3.28;;
55063;SDS011;40963;52.168;21.296;2023-02-04T09:03:13;8.15;;;3.60;;
55063;SDS011;40963;52.168;21.296;2023-02-04T09:05:38;9.77;;;3.78;;
55063;SDS011;40963;52.168;21.296;2023-02-04T09:08:04;4.43;;;2.65;;
55063;SDS011;40963;52.168;21.296;2023-02-04T09:10:30;4.22;;;2.58;;
55063;SDS011;40963;52.168;21.296;2023-02-04T09:12:55;5.72;;;2.80;;
55063;SDS011;40963;52.168;21.296;2023-02-04T09:15:23;5.35;;;2.58;;
55063;SDS011;40963;52.168;21.296;2023-02-04T09:17:50;3.78;;;2.30;;
55063;SDS011;40963;52.168;21.296;2023-02-04T09:20:18;3.63;;;3.00;;
55063;SDS011;40963;52.168;21.296;2023-02-04T09:22:45;4.60;;;2.35;;
55063;SDS011;40963;52.168;21.296;2023-02-04T09:25:12;3.42;;;2.60;;
55063;SDS011;40963;52.168;21.296;2023-02-04T09:27:38;3.20;;;2.08;;
55063;SDS011;40963;52.168;21.296;2023-02-04T09:30:03;5.18;;;2.20;;
55063;SDS011;40963;52.168;21.296;2023-02-04T09:32:29;3.80;;;2.28;;
55063;SDS011;40963;52.168;21.296;2023-02-04T09:34:55;3.55;;;1.92;;
55063;SDS011;40963;52.168;21.296;2023-02-04T09:37:21;3.10;;;2.35;;
55063;SDS011;40963;52.168;21.296;2023-02-04T09:39:48;3.60;;;2.50;;
55063;SDS011;40963;52.168;21.296;2023-02-04T09:42:14;2.85;;;2.05;;
55063;SDS011;40963;52.168;21.296;2023-02-04T09:44:40;4.85;;;2.75;;
55063;SDS011;40963;52.168;21.296;2023-02-04T09:47:08;5.18;;;2.75;;
55063;SDS011;40963;52.168;21.296;2023-02-04T09:49:35;4.03;;;2.50;;
55063;SDS011;40963;52.168;21.296;2023-02-04T09:52:01;6.45;;;2.22;;
55063;SDS011;40963;52.168;21.296;2023-02-04T09:54:27;4.50;;;2.88;;
55063;SDS011;40963;52.168;21.296;2023-02-04T09:56:53;2.15;;;1.83;;
55063;SDS011;40963;52.168;21.296;2023-02-04T09:59:20;3.67;;;1.98;;
55063;SDS011;40963;52.168;21.296;2023-02-04T10:04:45;4.82;;;2.60;;
55063;SDS011;40963;52.168;21.296;2023-02-04T10:07:11;3.40;;;1.80;;
55063;SDS011;40963;52.168;21.296;2023-02-04T10:09:38;4.20;;;1.98;;
55063;SDS011;40963;52.168;21.296;2023-02-04T10:12:05;5.47;;;2.58;;
55063;SDS011;40963;52.168;21.296;2023-02-04T10:14:31;4.05;;;2.30;;
55063;SDS011;40963;52.168;21.296;2023-02-04T10:16:57;3.13;;;2.58;;
55063;SDS011;40963;52.168;21.296;2023-02-04T10:19:25;2.95;;;2.20;;
55063;SDS011;40963;52.168;21.296;2023-02-04T10:21:52;2.33;;;1.90;;
55063;SDS011;40963;52.168;21.296;2023-02-04T10:24:19;4.82;;;2.67;;
55063;SDS011;40963;52.168;21.296;2023-02-04T10:26:50;4.32;;;2.75;;
55063;SDS011;40963;52.168;21.296;2023-02-04T10:29:18;4.25;;;2.78;;
55063;SDS011;40963;52.168;21.296;2023-02-04T10:31:47;3.63;;;1.95;;
55063;SDS011;40963;52.168;21.296;2023-02-04T10:36:45;5.30;;;2.45;;
55063;SDS011;40963;52.168;21.296;2023-02-04T10:39:22;3.33;;;2.00;;
55063;SDS011;40963;52.168;21.296;2023-02-04T10:41:51;4.40;;;2.58;;
55063;SDS011;40963;52.168;21.296;2023-02-04T10:44:30;2.58;;;2.33;;
55063;SDS011;40963;52.168;21.296;2023-02-04T10:47:04;3.75;;;2.38;;
55063;SDS011;40963;52.168;21.296;2023-02-04T10:49:33;3.75;;;3.15;;
55063;SDS011;40963;52.168;21.296;2023-02-04T10:51:59;8.05;;;3.25;;
55063;SDS011;40963;52.168;21.296;2023-02-04T10:54:33;6.35;;;3.17;;
55063;SDS011;40963;52.168;21.296;2023-02-04T10:57:22;4.55;;;3.10;;
55063;SDS011;40963;52.168;21.296;2023-02-04T10:59:50;5.47;;;3.47;;
55063;SDS011;40963;52.168;21.296;2023-02-04T11:04:58;3.95;;;2.55;;
55063;SDS011;40963;52.168;21.296;2023-02-04T11:07:24;8.68;;;3.95;;
55063;SDS011;40963;52.168;21.296;2023-02-04T11:09:50;6.15;;;3.67;;
55063;SDS011;40963;52.168;21.296;2023-02-04T11:12:20;6.68;;;3.83;;
55063;SDS011;40963;52.168;21.296;2023-02-04T11:14:53;7.25;;;3.90;;
55063;SDS011;40963;52.168;21.296;2023-02-04T11:17:29;5.80;;;3.30;;
55063;SDS011;40963;52.168;21.296;2023-02-04T11:19:56;7.50;;;3.65;;
55063;SDS011;40963;52.168;21.296;2023-02-04T11:25:29;8.43;;;3.08;;
55063;SDS011;40963;52.168;21.296;2023-02-04T11:27:58;4.78;;;3.00;;
55063;SDS011;40963;52.168;21.296;2023-02-04T11:30:23;3.65;;;2.05;;
55063;SDS011;40963;52.168;21.296;2023-02-04T11:33:03;3.72;;;2.88;;
55063;SDS011;40963;52.168;21.296;2023-02-04T11:35:29;3.25;;;2.30;;
55063;SDS011;40963;52.168;21.296;2023-02-04T11:37:56;9.73;;;2.90;;
55063;SDS011;40963;52.168;21.296;2023-02-04T11:40:23;6.25;;;3.70;;
55063;SDS011;40963;52.168;21.296;2023-02-04T11:42:58;4.72;;;2.00;;
55063;SDS011;40963;52.168;21.296;2023-02-04T11:45:30;7.15;;;3.03;;
55063;SDS011;40963;52.168;21.296;2023-02-04T11:47:58;2.95;;;1.85;;
55063;SDS011;40963;52.168;21.296;2023-02-04T11:55:28;6.38;;;3.53;;
55063;SDS011;40963;52.168;21.296;2023-02-04T11:57:56;10.07;;;3.47;;
55063;SDS011;40963;52.168;21.296;2023-02-04T12:00:26;7.22;;;3.00;;
55063;SDS011;40963;52.168;21.296;2023-02-04T12:03:04;5.45;;;3.25;;
55063;SDS011;40963;52.168;21.296;2023-02-04T12:05:43;6.85;;;2.72;;
55063;SDS011;40963;52.168;21.296;2023-02-04T12:08:12;1.20;;;1.17;;
55063;SDS011;40963;52.168;21.296;2023-02-04T12:10:48;2.47;;;2.03;;
55063;SDS011;40963;52.168;21.296;2023-02-04T12:13:22;7.28;;;3.72;;
55063;SDS011;40963;52.168;21.296;2023-02-04T12:15:53;6.95;;;3.95;;
55063;SDS011;40963;52.168;21.296;2023-02-04T12:18:24;10.05;;;3.60;;
55063;SDS011;40963;52.168;21.296;2023-02-04T12:20:52;7.03;;;3.28;;
55063;SDS011;40963;52.168;21.296;2023-02-04T12:23:18;7.55;;;3.72;;
55063;SDS011;40963;52.168;21.296;2023-02-04T12:25:44;7.47;;;3.35;;
55063;SDS011;40963;52.168;21.296;2023-02-04T12:28:09;10.02;;;4.05;;
55063;SDS011;40963;52.168;21.296;2023-02-04T12:30:35;8.02;;;4.70;;
55063;SDS011;40963;52.168;21.296;2023-02-04T12:33:01;8.77;;;4.15;;
55063;SDS011;40963;52.168;21.296;2023-02-04T12:35:26;7.28;;;4.00;;
55063;SDS011;40963;52.168;21.296;2023-02-04T12:37:52;5.72;;;3.40;;
55063;SDS011;40963;52.168;21.296;2023-02-04T12:40:18;13.55;;;4.15;;
55063;SDS011;40963;52.168;21.296;2023-02-04T12:42:45;6.97;;;4.40;;
55063;SDS011;40963;52.168;21.296;2023-02-04T12:45:12;7.13;;;4.45;;
55063;SDS011;40963;52.168;21.296;2023-02-04T12:47:39;6.68;;;3.40;;
55063;SDS011;40963;52.168;21.296;2023-02-04T12:50:06;12.27;;;4.22;;
55063;SDS011;40963;52.168;21.296;2023-02-04T12:52:33;6.88;;;4.30;;
55063;SDS011;40963;52.168;21.296;2023-02-04T12:55:01;9.82;;;4.45;;
55063;SDS011;40963;52.168;21.296;2023-02-04T12:57:29;3.38;;;1.88;;
55063;SDS011;40963;52.168;21.296;2023-02-04T12:59:55;9.05;;;3.80;;
55063;SDS011;40963;52.168;21.296;2023-02-04T13:02:23;5.10;;;3.15;;
55063;SDS011;40963;52.168;21.296;2023-02-04T13:04:49;6.15;;;3.45;;
55063;SDS011;40963;52.168;21.296;2023-02-04T13:07:15;4.53;;;2.72;;
55063;SDS011;40963;52.168;21.296;2023-02-04T13:09:41;11.13;;;5.28;;
55063;SDS011;40963;52.168;21.296;2023-02-04T13:12:06;6.75;;;3.22;;
55063;SDS011;40963;52.168;21.296;2023-02-04T13:14:32;11.30;;;3.97;;
55063;SDS011;40963;52.168;21.296;2023-02-04T13:16:58;6.47;;;3.35;;
55063;SDS011;40963;52.168;21.296;2023-02-04T13:19:24;6.22;;;4.07;;
55063;SDS011;40963;52.168;21.296;2023-02-04T13:21:49;6.75;;;3.47;;
55063;SDS011;40963;52.168;21.296;2023-02-04T13:24:15;7.68;;;3.67;;
55063;SDS011;40963;52.168;21.296;2023-02-04T13:26:41;4.97;;;2.88;;
55063;SDS011;40963;52.168;21.296;2023-02-04T13:29:07;4.47;;;2.63;;
55063;SDS011;40963;52.168;21.296;2023-02-04T13:31:32;6.47;;;3.20;;
55063;SDS011;40963;52.168;21.296;2023-02-04T13:33:58;6.50;;;3.10;;
55063;SDS011;40963;52.168;21.296;2023-02-04T13:36:24;4.72;;;2.95;;
55063;SDS011;40963;52.168;21.296;2023-02-04T13:38:51;4.75;;;2.88;;
55063;SDS011;40963;52.168;21.296;2023-02-04T13:41:17;4.90;;;2.75;;
55063;SDS011;40963;52.168;21.296;2023-02-04T13:43:43;3.42;;;2.33;;
55063;SDS011;40963;52.168;21.296;2023-02-04T13:46:08;4.88;;;3.25;;
55063;SDS011;40963;52.168;21.296;2023-02-04T13:48:34;4.07;;;2.50;;
55063;SDS011;40963;52.168;21.296;2023-02-04T13:50:59;3.92;;;2.47;;
55063;SDS011;40963;52.168;21.296;2023-02-04T13:53:25;2.97;;;1.83;;
55063;SDS011;40963;52.168;21.296;2023-02-04T13:55:55;4.55;;;2.92;;
55063;SDS011;40963;52.168;21.296;2023-02-04T13:58:22;2.90;;;2.30;;
55063;SDS011;40963;52.168;21.296;2023-02-04T14:00:48;4.82;;;3.50;;
55063;SDS011;40963;52.168;21.296;2023-02-04T14:03:13;3.38;;;2.47;;
55063;SDS011;40963;52.168;21.296;2023-02-04T14:05:39;5.38;;;2.90;;
55063;SDS011;40963;52.168;21.296;2023-02-04T14:08:05;2.15;;;1.80;;
55063;SDS011;40963;52.168;21.296;2023-02-04T14:10:31;5.70;;;3.15;;
55063;SDS011;40963;52.168;21.296;2023-02-04T14:12:56;3.97;;;3.03;;
55063;SDS011;40963;52.168;21.296;2023-02-04T14:15:22;4.18;;;3.03;;
55063;SDS011;40963;52.168;21.296;2023-02-04T14:17:48;5.18;;;2.42;;
55063;SDS011;40963;52.168;21.296;2023-02-04T14:20:14;4.50;;;3.15;;
55063;SDS011;40963;52.168;21.296;2023-02-04T14:22:40;2.45;;;1.70;;
55063;SDS011;40963;52.168;21.296;2023-02-04T14:25:06;1.52;;;1.42;;
55063;SDS011;40963;52.168;21.296;2023-02-04T14:27:33;4.60;;;2.55;;
55063;SDS011;40963;52.168;21.296;2023-02-04T14:29:59;4.65;;;2.00;;
55063;SDS011;40963;52.168;21.296;2023-02-04T14:32:25;4.07;;;2.80;;
55063;SDS011;40963;52.168;21.296;2023-02-04T14:34:51;7.20;;;3.33;;
55063;SDS011;40963;52.168;21.296;2023-02-04T14:37:16;6.95;;;3.47;;
55063;SDS011;40963;52.168;21.296;2023-02-04T14:39:42;6.78;;;3.42;;
55063;SDS011;40963;52.168;21.296;2023-02-04T14:42:07;8.63;;;4.22;;
55063;SDS011;40963;52.168;21.296;2023-02-04T14:44:33;6.68;;;3.55;;